Jsp Bora — V2CQ4 — position and weather

sailwx.info

Track history (hours):
 
Tides and Currents Weather Stations Pressure Air Temp Water Temp Dewpoint Dewpoint Depression Visibility Wind Speed Wind Dir Waves Ship Positions

Jsp Bora

Last reported at 2017-Nov-18 01:01 UTC. Time now 2017-Nov-18 01:05 UTC.
Position N 54°59' E 011°02'.

Length 148 m; draft 6.7 m.

Type: Cargo ship. MMSI: 305079000.

Date/timePositionNaut miles runAvg speedWind from/ knotsBaromVisibWave heightAir tempDewpointWater temp
2017-Nov-18 01:01N 54°59' E 011°02'5 9.2
2017-Nov-18 00:31N 54°56' E 010°57'4 8.8
2017-Nov-18 00:00N 54°52' E 010°54'5 9.2
2017-Nov-17 23:30N 54°47' E 010°53'4 8.8
2017-Nov-17 23:01N 54°43' E 010°52'5 9.5
2017-Nov-17 22:30N 54°39' E 010°47'510.0
2017-Nov-17 22:01N 54°35' E 010°42'5 9.2
2017-Nov-17 21:31N 54°33' E 010°35'5 9.3
2017-Nov-17 21:00N 54°31' E 010°27'16 6.3
2017-Nov-17 18:27N 54°22' E 010°05'3 7.5
2017-Nov-17 17:59N 54°21' E 009°59'4 7.2
2017-Nov-17 17:28N 54°21' E 009°53'3 7.4
2017-Nov-17 17:01N 54°22' E 009°47'4 8.1
2017-Nov-17 16:30N 54°18' E 009°43'4 7.7
2017-Nov-17 16:00N 54°16' E 009°38'3 5.7
2017-Nov-17 15:31N 54°13' E 009°36'4 8.3
2017-Nov-17 15:01N 54°11' E 009°30'4 8.5
2017-Nov-17 14:30N 54°09' E 009°23'1 1.9
2017-Nov-17 14:01N 54°09' E 009°22'2 4.1
2017-Nov-17 13:30N 54°07' E 009°20'4 7.7
2017-Nov-17 13:00N 54°03' E 009°19'2 4.7
2017-Nov-17 12:30N 54°01' E 009°18'4 8.2
2017-Nov-17 12:00N 53°57' E 009°15'4 7.0
2017-Nov-17 11:30N 53°55' E 009°11'2 3.6
2017-Nov-17 11:01N 53°54' E 009°09'0 0.5
2017-Nov-17 10:30N 53°53' E 009°08'2 3.4
2017-Nov-17 10:01N 53°53' E 009°06'4 8.4
2017-Nov-17 09:30N 53°51' E 008°59'815.7
2017-Nov-17 09:00N 53°51' E 008°46'714.5
2017-Nov-17 08:30N 53°57' E 008°39'816.3
2017-Nov-17 08:00N 53°59' E 008°25'714.5
2017-Nov-17 07:30N 53°60' E 008°13'612.3
2017-Nov-17 07:00N 53°58' E 008°03'610.8
2017-Nov-17 06:30N 53°54' E 007°56'4 8.2
2017-Nov-17 06:00N 53°51' E 008°01'612.3
2017-Nov-17 05:30N 53°47' E 008°09'713.4
2017-Nov-17 05:00N 53°43' E 008°17'714.8
2017-Nov-17 04:30N 53°38' E 008°27'4 7.6
2017-Nov-17 04:00N 53°35' E 008°31'0 0.0
2017-Nov-17 03:28N 53°35' E 008°31'0 0.0
2017-Nov-17 02:58N 53°35' E 008°31'0 0.0
2017-Nov-17 02:28N 53°35' E 008°31'0 0.0
2017-Nov-17 02:00N 53°35' E 008°31'0 0.0
2017-Nov-17 01:30N 53°35' E 008°31'0 0.0
2017-Nov-17 01:01N 53°35' E 008°31'0 0.0
2017-Nov-17 00:30N 53°35' E 008°31'0 0.0
2017-Nov-17 00:00N 53°35' E 008°31'0 0.0
2017-Nov-16 23:30N 53°35' E 008°31'0 0.0
2017-Nov-16 23:00N 53°35' E 008°31'0 0.0
2017-Nov-16 22:30N 53°35' E 008°31'0 0.0
2017-Nov-16 22:00N 53°35' E 008°31'0 0.0
2017-Nov-16 21:30N 53°35' E 008°31'0 0.0
2017-Nov-16 21:00N 53°35' E 008°31'0 0.0
2017-Nov-16 20:30N 53°35' E 008°31'0 0.0
2017-Nov-16 20:00N 53°35' E 008°31'0 0.0
2017-Nov-16 19:30N 53°35' E 008°31'0 0.0
2017-Nov-16 19:00N 53°35' E 008°31'0 0.0
2017-Nov-16 18:30N 53°35' E 008°31'0 0.0
2017-Nov-16 18:00N 53°35' E 008°31'0 0.0
2017-Nov-16 17:30N 53°35' E 008°31'0 0.0
2017-Nov-16 17:00N 53°35' E 008°31'0 0.0
2017-Nov-16 16:29N 53°35' E 008°31'0 0.0
2017-Nov-16 15:59N 53°35' E 008°31'0 0.0
2017-Nov-16 15:29N 53°35' E 008°31'0 0.0
2017-Nov-16 14:59N 53°35' E 008°31'0 0.0
2017-Nov-16 14:29N 53°35' E 008°31'0 0.0
2017-Nov-16 13:59N 53°35' E 008°31'0 0.0
2017-Nov-16 13:29N 53°35' E 008°31'0 0.0
2017-Nov-16 12:59N 53°35' E 008°31'0 0.0
2017-Nov-16 12:29N 53°35' E 008°31'0 0.0
2017-Nov-16 11:59N 53°35' E 008°31'0 0.0
2017-Nov-16 11:29N 53°35' E 008°31'0 0.0
2017-Nov-16 10:59N 53°35' E 008°31'0 0.0
2017-Nov-16 10:29N 53°35' E 008°31'0 0.0
2017-Nov-16 09:59N 53°35' E 008°31'0 0.0
2017-Nov-16 09:29N 53°35' E 008°31'0 0.0
2017-Nov-16 08:59N 53°35' E 008°31'0 0.0
2017-Nov-16 08:29N 53°35' E 008°31'0 0.0
2017-Nov-16 07:59N 53°35' E 008°31'0 0.0
2017-Nov-16 07:30N 53°35' E 008°31'1 1.6
2017-Nov-16 07:00N 53°36' E 008°30'611.1
2017-Nov-16 06:30N 53°40' E 008°23'815.2
2017-Nov-16 06:00N 53°44' E 008°13'815.1
2017-Nov-16 05:30N 53°50' E 008°05'714.5
2017-Nov-16 05:00N 53°52' E 007°53'3 5.7
2017-Nov-16 04:31N 53°54' E 007°50'0 0.1
2017-Nov-16 03:58N 53°54' E 007°50'0 0.0
2017-Nov-16 03:28N 53°54' E 007°50'0 0.1
2017-Nov-16 02:52N 53°54' E 007°49'0 0.0
2017-Nov-16 02:10N 53°54' E 007°49'0 0.0
2017-Nov-16 01:46N 53°54' E 007°49'0 0.0
2017-Nov-16 01:28N 53°54' E 007°49'0 0.0
2017-Nov-16 00:58N 53°54' E 007°49'0 0.0
2017-Nov-16 00:28N 53°54' E 007°49'0 0.0
2017-Nov-15 23:58N 53°54' E 007°49'0 0.0
2017-Nov-15 23:10N 53°54' E 007°49'0 0.1
2017-Nov-15 22:58N 53°54' E 007°49'0 0.1
2017-Nov-15 22:22N 53°54' E 007°50'0 0.1
2017-Nov-15 21:58N 53°54' E 007°50'0 0.0
2017-Nov-15 21:22N 53°54' E 007°50'0 0.1
2017-Nov-15 20:58N 53°54' E 007°50'0 0.1
2017-Nov-15 20:28N 53°54' E 007°50'0 0.0
2017-Nov-15 19:58N 53°54' E 007°50'0 0.0
2017-Nov-15 19:28N 53°54' E 007°50'0 0.0
2017-Nov-15 18:58N 53°54' E 007°50'0 0.0
2017-Nov-15 18:22N 53°54' E 007°50'0 0.0
2017-Nov-15 17:58N 53°54' E 007°50'0 0.0
2017-Nov-15 17:28N 53°54' E 007°50'0 0.0
2017-Nov-15 16:58N 53°54' E 007°50'0 0.0
2017-Nov-15 16:28N 53°54' E 007°50'0 0.0
2017-Nov-15 15:58N 53°54' E 007°50'3 6.7
2017-Nov-15 15:30N 53°51' E 007°52'612.6
2017-Nov-15 15:00N 53°48' E 008°01'715.0
2017-Nov-15 14:30N 53°41' E 008°05'612.0
2017-Nov-15 14:00N 53°35' E 008°09'0 0.2
2017-Nov-15 13:30N 53°35' E 008°09'0 0.0
2017-Nov-15 12:59N 53°35' E 008°09'0 0.0
2017-Nov-15 12:29N 53°35' E 008°09'0 0.0
2017-Nov-15 11:59N 53°35' E 008°09'0 0.0
2017-Nov-15 11:23N 53°35' E 008°09'0 0.0
2017-Nov-15 10:53N 53°35' E 008°09'0 0.0
2017-Nov-15 10:29N 53°35' E 008°09'0 0.0
2017-Nov-15 09:59N 53°35' E 008°09'0 0.0
2017-Nov-15 09:29N 53°35' E 008°09'0 0.0
2017-Nov-15 08:56N 53°35' E 008°09'0 0.0
2017-Nov-15 08:29N 53°35' E 008°09'0 0.0
2017-Nov-15 07:56N 53°35' E 008°09'0 0.0
2017-Nov-15 07:29N 53°35' E 008°09'0 0.0
2017-Nov-15 06:59N 53°35' E 008°09'0 0.0
2017-Nov-15 06:29N 53°35' E 008°09'0 0.0
2017-Nov-15 05:56N 53°35' E 008°09'0 0.0
2017-Nov-15 05:29N 53°35' E 008°09'0 0.0
2017-Nov-15 05:00N 53°35' E 008°09'0 0.3
2017-Nov-15 04:30N 53°35' E 008°09'1 2.8
2017-Nov-15 04:00N 53°37' E 008°09'510.4
2017-Nov-15 03:30N 53°41' E 008°05'612.9
2017-Nov-15 03:00N 53°47' E 008°01'612.5
2017-Nov-15 02:30N 53°51' E 007°52'3 6.8
2017-Nov-15 02:00N 53°53' E 007°47'611.2
2017-Nov-15 01:29N 53°56' E 007°39'611.8
2017-Nov-15 01:00N 54°01' E 007°34'4811.3
2017-Nov-14 20:47N 54°45' E 007°03'312.4
2017-Nov-14 20:30N 54°48' E 007°03'612.5
2017-Nov-14 20:00N 54°55' E 007°03'612.8
2017-Nov-14 19:30N 55°01' E 007°03'712.9
2017-Nov-14 19:00N 55°08' E 007°04'713.2
2017-Nov-14 18:30N 55°14' E 007°03'713.1
2017-Nov-14 18:00N 55°21' E 007°04'713.0
2017-Nov-14 17:30N 55°27' E 007°04'713.0
2017-Nov-14 16:59N 55°34' E 007°04'16811.3
2017-Nov-14 02:08N 57°48' E 010°06'213.0
2017-Nov-14 02:00N 57°48' E 010°09'713.3
2017-Nov-14 01:30N 57°49' E 010°22'713.3
2017-Nov-14 01:00N 57°49' E 010°34'713.0
2017-Nov-14 00:30N 57°49' E 010°46'713.3
2017-Nov-14 00:00N 57°46' E 010°57'713.6
2017-Nov-13 23:30N 57°43' E 011°09'714.0
2017-Nov-13 22:59N 57°39' E 011°21'714.2
2017-Nov-13 22:30N 57°36' E 011°32'5 9.7
2017-Nov-13 22:00N 57°38' E 011°41'25 1.3
2017-Nov-13 02:00N 57°12' E 011°37'4 8.5
2017-Nov-13 01:30N 57°08' E 011°40'4 8.7
2017-Nov-13 01:00N 57°04' E 011°42'4 7.9
2017-Nov-13 00:29N 57°00' E 011°45'5 8.4
2017-Nov-12 23:56N 56°56' E 011°47'66 7.3
2017-Nov-12 14:52N 56°06' E 010°29'3 9.5
2017-Nov-12 14:30N 56°07' E 010°23'5 9.3
2017-Nov-12 14:01N 56°09' E 010°16'1 2.2
2017-Nov-12 13:31N 56°09' E 010°14'0 0.0
2017-Nov-12 12:57N 56°09' E 010°14'0 0.0
2017-Nov-12 12:18N 56°09' E 010°14'0 0.0
2017-Nov-12 10:42N 56°09' E 010°14'0 0.0
2017-Nov-12 10:30N 56°09' E 010°14'0 0.0
2017-Nov-12 09:57N 56°09' E 010°14'0 0.0
2017-Nov-12 09:30N 56°09' E 010°14'0 0.0
2017-Nov-12 09:00N 56°09' E 010°14'0 0.0
2017-Nov-12 08:21N 56°09' E 010°14'0 0.0
2017-Nov-12 07:57N 56°09' E 010°14'0 0.0
2017-Nov-12 07:24N 56°09' E 010°14'0 0.0
2017-Nov-12 06:33N 56°09' E 010°14'0 0.0
2017-Nov-12 06:24N 56°09' E 010°14'69 2.5
2017-Nov-11 03:10N 56°58' E 011°43'3 9.1
2017-Nov-11 02:50N 57°01' E 011°41'3 9.5
2017-Nov-11 02:28N 57°04' E 011°39'510.2
2017-Nov-11 02:00N 57°08' E 011°36'510.9
2017-Nov-11 01:30N 57°13' E 011°32'3 6.1
2017-Nov-11 01:00N 57°11' E 011°37'4 8.4
2017-Nov-11 00:30N 57°08' E 011°40'4 8.1
2017-Nov-11 00:00N 57°04' E 011°42'5 8.2
2017-Nov-10 23:28N 56°60' E 011°45'1 2.7
2017-Nov-10 22:55N 56°59' E 011°42'4 8.4
2017-Nov-10 22:30N 57°03' E 011°40'5 9.1
2017-Nov-10 21:57N 57°07' E 011°37'4 9.1
2017-Nov-10 21:30N 57°11' E 011°35'4 8.8
2017-Nov-10 21:01N 57°15' E 011°32'4 8.4
2017-Nov-10 20:31N 57°19' E 011°29'4 8.1
2017-Nov-10 20:00N 57°23' E 011°27'4 7.1
2017-Nov-10 19:31N 57°26' E 011°24'3 6.9
2017-Nov-10 19:00N 57°29' E 011°21'4 7.8
2017-Nov-10 18:30N 57°32' E 011°16'4 7.9
2017-Nov-10 17:59N 57°35' E 011°10'4 7.8
2017-Nov-10 17:30N 57°37' E 011°05'4 7.8
2017-Nov-10 17:00N 57°40' E 010°60'4 8.0
2017-Nov-10 16:30N 57°43' E 010°54'4 7.8
2017-Nov-10 16:00N 57°45' E 010°49'510.3
2017-Nov-10 15:30N 57°49' E 010°41'713.2
2017-Nov-10 15:00N 57°49' E 010°29'713.8
2017-Nov-10 14:30N 57°49' E 010°16'714.1
2017-Nov-10 14:00N 57°48' E 010°03'16712.5
2017-Nov-10 00:40N 55°33' E 007°04'412.2
2017-Nov-10 00:21N 55°29' E 007°03'412.3
2017-Nov-10 00:00N 55°25' E 007°04'612.0
2017-Nov-09 23:30N 55°19' E 007°04'612.2
2017-Nov-09 23:00N 55°13' E 007°03'612.5
2017-Nov-09 22:30N 55°07' E 007°04'612.4
2017-Nov-09 22:00N 55°01' E 007°04'1012.3
2017-Nov-09 21:13N 54°51' E 007°04'312.1
2017-Nov-09 21:00N 54°48' E 007°04'6212.4
2017-Nov-09 16:03N 53°53' E 007°50'112.7
2017-Nov-09 15:57N 53°52' E 007°52'511.1
2017-Nov-09 15:30N 53°51' E 007°60'612.1
2017-Nov-09 15:00N 53°48' E 008°08'612.1
2017-Nov-09 14:31N 53°44' E 008°16'611.5
2017-Nov-09 13:59N 53°40' E 008°23'510.9
2017-Nov-09 13:30N 53°36' E 008°30'1 1.0
2017-Nov-09 13:00N 53°36' E 008°31'0 0.0
2017-Nov-09 12:30N 53°36' E 008°31'0 0.0
2017-Nov-09 12:00N 53°36' E 008°31'0 0.0
2017-Nov-09 11:30N 53°36' E 008°31'0 0.0
2017-Nov-09 10:59N 53°36' E 008°31'0 0.0
2017-Nov-09 10:29N 53°36' E 008°31'0 0.0
2017-Nov-09 09:59N 53°36' E 008°31'0 0.0
2017-Nov-09 09:29N 53°36' E 008°31'0 0.0
2017-Nov-09 08:59N 53°36' E 008°31'0 0.0
2017-Nov-09 08:29N 53°36' E 008°31'0 0.0
2017-Nov-09 07:59N 53°36' E 008°31'0 0.0
2017-Nov-09 07:29N 53°36' E 008°31'0 0.0
2017-Nov-09 06:59N 53°36' E 008°31'0 0.0
2017-Nov-09 06:29N 53°36' E 008°31'0 0.0
2017-Nov-09 05:59N 53°36' E 008°31'0 0.0
2017-Nov-09 05:26N 53°36' E 008°31'0 0.0
2017-Nov-09 04:59N 53°36' E 008°31'0 0.0
2017-Nov-09 04:29N 53°36' E 008°31'0 0.0
2017-Nov-09 03:59N 53°36' E 008°31'0 0.0
2017-Nov-09 03:29N 53°36' E 008°31'0 0.0
2017-Nov-09 02:59N 53°36' E 008°31'0 0.0
2017-Nov-09 02:29N 53°36' E 008°31'0 0.0
2017-Nov-09 01:59N 53°36' E 008°31'0 0.0
2017-Nov-09 01:29N 53°36' E 008°31'0 0.0
2017-Nov-09 00:59N 53°36' E 008°31'0 0.0
2017-Nov-09 00:29N 53°36' E 008°31'0 0.0
2017-Nov-08 23:59N 53°36' E 008°31'0 0.0
2017-Nov-08 23:29N 53°36' E 008°31'0 0.0
2017-Nov-08 22:59N 53°36' E 008°31'0 0.0
2017-Nov-08 22:29N 53°36' E 008°31'0 0.0
2017-Nov-08 22:00N 53°36' E 008°31'2 3.0
2017-Nov-08 21:30N 53°37' E 008°29'4 7.5
2017-Nov-08 21:00N 53°39' E 008°24'4 8.2
2017-Nov-08 20:30N 53°42' E 008°19'4 8.4
2017-Nov-08 20:01N 53°45' E 008°13'4 7.0
2017-Nov-08 19:30N 53°47' E 008°09'2 4.9
2017-Nov-08 19:01N 53°49' E 008°06'4 7.0
2017-Nov-08 18:30N 53°51' E 008°01'510.3
2017-Nov-08 18:00N 53°52' E 007°53'713.5
2017-Nov-08 17:30N 53°48' E 008°02'816.6
2017-Nov-08 17:00N 53°40' E 008°06'5 9.2
2017-Nov-08 16:31N 53°36' E 008°09'0 0.0
2017-Nov-08 15:59N 53°36' E 008°09'0 0.0
2017-Nov-08 15:29N 53°36' E 008°09'0 0.0
2017-Nov-08 14:56N 53°36' E 008°09'0 0.0
2017-Nov-08 14:29N 53°36' E 008°09'0 0.0
2017-Nov-08 13:53N 53°36' E 008°09'0 0.0
2017-Nov-08 13:29N 53°36' E 008°09'0 0.0
2017-Nov-08 12:59N 53°36' E 008°09'0 0.0
2017-Nov-08 12:29N 53°36' E 008°09'0 0.0
2017-Nov-08 11:59N 53°36' E 008°09'0 0.0
2017-Nov-08 11:29N 53°36' E 008°09'0 0.0
2017-Nov-08 10:59N 53°36' E 008°09'0 0.0
2017-Nov-08 10:29N 53°36' E 008°09'0 0.0
2017-Nov-08 09:56N 53°36' E 008°09'0 0.0
2017-Nov-08 09:26N 53°36' E 008°09'0 0.0
2017-Nov-08 08:59N 53°36' E 008°09'0 0.0
2017-Nov-08 08:30N 53°36' E 008°09'0 0.0
2017-Nov-08 08:00N 53°36' E 008°09'0 0.0
2017-Nov-08 07:31N 53°36' E 008°09'0 0.0
2017-Nov-08 07:00N 53°36' E 008°09'0 0.0
2017-Nov-08 06:31N 53°36' E 008°09'0 0.0
2017-Nov-08 06:00N 53°36' E 008°09'0 0.0
2017-Nov-08 05:31N 53°36' E 008°09'1 3.0
2017-Nov-08 05:01N 53°37' E 008°09'4 7.9
2017-Nov-08 04:31N 53°40' E 008°06'510.6
2017-Nov-08 04:00N 53°45' E 008°03'5 9.8
2017-Nov-08 03:30N 53°49' E 007°57'611.2
2017-Nov-08 02:58N 53°52' E 007°49'3 6.7
2017-Nov-08 02:30N 53°53' E 007°44'  
Track history (hours):
 
Tides and Currents Weather Stations Pressure Air Temp Water Temp Dewpoint Dewpoint Depression Visibility Wind Speed Wind Dir Waves Ship Positions

Jsp Bora

Last reported at 2017-Nov-18 01:01 UTC. Time now 2017-Nov-18 01:05 UTC.
Position N 54°59' E 011°02'.

Length 148 m; draft 6.7 m.

Type: Cargo ship. MMSI: 305079000.

Date/timePositionNaut miles runAvg speedWind from/ knotsBaromVisibWave heightAir tempDewpointWater temp
2017-Nov-18 01:01N 54°59' E 011°02'5 9.2
2017-Nov-18 00:31N 54°56' E 010°57'4 8.8
2017-Nov-18 00:00N 54°52' E 010°54'5 9.2
2017-Nov-17 23:30N 54°47' E 010°53'4 8.8
2017-Nov-17 23:01N 54°43' E 010°52'5 9.5
2017-Nov-17 22:30N 54°39' E 010°47'510.0
2017-Nov-17 22:01N 54°35' E 010°42'5 9.2
2017-Nov-17 21:31N 54°33' E 010°35'5 9.3
2017-Nov-17 21:00N 54°31' E 010°27'16 6.3
2017-Nov-17 18:27N 54°22' E 010°05'3 7.5
2017-Nov-17 17:59N 54°21' E 009°59'4 7.2
2017-Nov-17 17:28N 54°21' E 009°53'3 7.4
2017-Nov-17 17:01N 54°22' E 009°47'4 8.1
2017-Nov-17 16:30N 54°18' E 009°43'4 7.7
2017-Nov-17 16:00N 54°16' E 009°38'3 5.7
2017-Nov-17 15:31N 54°13' E 009°36'4 8.3
2017-Nov-17 15:01N 54°11' E 009°30'4 8.5
2017-Nov-17 14:30N 54°09' E 009°23'1 1.9
2017-Nov-17 14:01N 54°09' E 009°22'2 4.1
2017-Nov-17 13:30N 54°07' E 009°20'4 7.7
2017-Nov-17 13:00N 54°03' E 009°19'2 4.7
2017-Nov-17 12:30N 54°01' E 009°18'4 8.2
2017-Nov-17 12:00N 53°57' E 009°15'4 7.0
2017-Nov-17 11:30N 53°55' E 009°11'2 3.6
2017-Nov-17 11:01N 53°54' E 009°09'0 0.5
2017-Nov-17 10:30N 53°53' E 009°08'2 3.4
2017-Nov-17 10:01N 53°53' E 009°06'4 8.4
2017-Nov-17 09:30N 53°51' E 008°59'815.7
2017-Nov-17 09:00N 53°51' E 008°46'714.5
2017-Nov-17 08:30N 53°57' E 008°39'816.3
2017-Nov-17 08:00N 53°59' E 008°25'714.5
2017-Nov-17 07:30N 53°60' E 008°13'612.3
2017-Nov-17 07:00N 53°58' E 008°03'610.8
2017-Nov-17 06:30N 53°54' E 007°56'4 8.2
2017-Nov-17 06:00N 53°51' E 008°01'612.3
2017-Nov-17 05:30N 53°47' E 008°09'713.4
2017-Nov-17 05:00N 53°43' E 008°17'714.8
2017-Nov-17 04:30N 53°38' E 008°27'4 7.6
2017-Nov-17 04:00N 53°35' E 008°31'0 0.0
2017-Nov-17 03:28N 53°35' E 008°31'0 0.0
2017-Nov-17 02:58N 53°35' E 008°31'0 0.0
2017-Nov-17 02:28N 53°35' E 008°31'0 0.0
2017-Nov-17 02:00N 53°35' E 008°31'0 0.0
2017-Nov-17 01:30N 53°35' E 008°31'0 0.0
2017-Nov-17 01:01N 53°35' E 008°31'0 0.0
2017-Nov-17 00:30N 53°35' E 008°31'0 0.0
2017-Nov-17 00:00N 53°35' E 008°31'0 0.0
2017-Nov-16 23:30N 53°35' E 008°31'0 0.0
2017-Nov-16 23:00N 53°35' E 008°31'0 0.0
2017-Nov-16 22:30N 53°35' E 008°31'0 0.0
2017-Nov-16 22:00N 53°35' E 008°31'0 0.0
2017-Nov-16 21:30N 53°35' E 008°31'0 0.0
2017-Nov-16 21:00N 53°35' E 008°31'0 0.0
2017-Nov-16 20:30N 53°35' E 008°31'0 0.0
2017-Nov-16 20:00N 53°35' E 008°31'0 0.0
2017-Nov-16 19:30N 53°35' E 008°31'0 0.0
2017-Nov-16 19:00N 53°35' E 008°31'0 0.0
2017-Nov-16 18:30N 53°35' E 008°31'0 0.0
2017-Nov-16 18:00N 53°35' E 008°31'0 0.0
2017-Nov-16 17:30N 53°35' E 008°31'0 0.0
2017-Nov-16 17:00N 53°35' E 008°31'0 0.0
2017-Nov-16 16:29N 53°35' E 008°31'0 0.0
2017-Nov-16 15:59N 53°35' E 008°31'0 0.0
2017-Nov-16 15:29N 53°35' E 008°31'0 0.0
2017-Nov-16 14:59N 53°35' E 008°31'0 0.0
2017-Nov-16 14:29N 53°35' E 008°31'0 0.0
2017-Nov-16 13:59N 53°35' E 008°31'0 0.0
2017-Nov-16 13:29N 53°35' E 008°31'0 0.0
2017-Nov-16 12:59N 53°35' E 008°31'0 0.0
2017-Nov-16 12:29N 53°35' E 008°31'0 0.0
2017-Nov-16 11:59N 53°35' E 008°31'0 0.0
2017-Nov-16 11:29N 53°35' E 008°31'0 0.0
2017-Nov-16 10:59N 53°35' E 008°31'0 0.0
2017-Nov-16 10:29N 53°35' E 008°31'0 0.0
2017-Nov-16 09:59N 53°35' E 008°31'0 0.0
2017-Nov-16 09:29N 53°35' E 008°31'0 0.0
2017-Nov-16 08:59N 53°35' E 008°31'0 0.0
2017-Nov-16 08:29N 53°35' E 008°31'0 0.0
2017-Nov-16 07:59N 53°35' E 008°31'0 0.0
2017-Nov-16 07:30N 53°35' E 008°31'1 1.6
2017-Nov-16 07:00N 53°36' E 008°30'611.1
2017-Nov-16 06:30N 53°40' E 008°23'815.2
2017-Nov-16 06:00N 53°44' E 008°13'815.1
2017-Nov-16 05:30N 53°50' E 008°05'714.5
2017-Nov-16 05:00N 53°52' E 007°53'3 5.7
2017-Nov-16 04:31N 53°54' E 007°50'0 0.1
2017-Nov-16 03:58N 53°54' E 007°50'0 0.0
2017-Nov-16 03:28N 53°54' E 007°50'0 0.1
2017-Nov-16 02:52N 53°54' E 007°49'0 0.0
2017-Nov-16 02:10N 53°54' E 007°49'0 0.0
2017-Nov-16 01:46N 53°54' E 007°49'0 0.0
2017-Nov-16 01:28N 53°54' E 007°49'0 0.0
2017-Nov-16 00:58N 53°54' E 007°49'0 0.0
2017-Nov-16 00:28N 53°54' E 007°49'0 0.0
2017-Nov-15 23:58N 53°54' E 007°49'0 0.0
2017-Nov-15 23:10N 53°54' E 007°49'0 0.1
2017-Nov-15 22:58N 53°54' E 007°49'0 0.1
2017-Nov-15 22:22N 53°54' E 007°50'0 0.1
2017-Nov-15 21:58N 53°54' E 007°50'0 0.0
2017-Nov-15 21:22N 53°54' E 007°50'0 0.1
2017-Nov-15 20:58N 53°54' E 007°50'0 0.1
2017-Nov-15 20:28N 53°54' E 007°50'0 0.0
2017-Nov-15 19:58N 53°54' E 007°50'0 0.0
2017-Nov-15 19:28N 53°54' E 007°50'0 0.0
2017-Nov-15 18:58N 53°54' E 007°50'0 0.0
2017-Nov-15 18:22N 53°54' E 007°50'0 0.0
2017-Nov-15 17:58N 53°54' E 007°50'0 0.0
2017-Nov-15 17:28N 53°54' E 007°50'0 0.0
2017-Nov-15 16:58N 53°54' E 007°50'0 0.0
2017-Nov-15 16:28N 53°54' E 007°50'0 0.0
2017-Nov-15 15:58N 53°54' E 007°50'3 6.7
2017-Nov-15 15:30N 53°51' E 007°52'612.6
2017-Nov-15 15:00N 53°48' E 008°01'715.0
2017-Nov-15 14:30N 53°41' E 008°05'612.0
2017-Nov-15 14:00N 53°35' E 008°09'0 0.2
2017-Nov-15 13:30N 53°35' E 008°09'0 0.0
2017-Nov-15 12:59N 53°35' E 008°09'0 0.0
2017-Nov-15 12:29N 53°35' E 008°09'0 0.0
2017-Nov-15 11:59N 53°35' E 008°09'0 0.0
2017-Nov-15 11:23N 53°35' E 008°09'0 0.0
2017-Nov-15 10:53N 53°35' E 008°09'0 0.0
2017-Nov-15 10:29N 53°35' E 008°09'0 0.0
2017-Nov-15 09:59N 53°35' E 008°09'0 0.0
2017-Nov-15 09:29N 53°35' E 008°09'0 0.0
2017-Nov-15 08:56N 53°35' E 008°09'0 0.0
2017-Nov-15 08:29N 53°35' E 008°09'0 0.0
2017-Nov-15 07:56N 53°35' E 008°09'0 0.0
2017-Nov-15 07:29N 53°35' E 008°09'0 0.0
2017-Nov-15 06:59N 53°35' E 008°09'0 0.0
2017-Nov-15 06:29N 53°35' E 008°09'0 0.0
2017-Nov-15 05:56N 53°35' E 008°09'0 0.0
2017-Nov-15 05:29N 53°35' E 008°09'0 0.0
2017-Nov-15 05:00N 53°35' E 008°09'0 0.3
2017-Nov-15 04:30N 53°35' E 008°09'1 2.8
2017-Nov-15 04:00N 53°37' E 008°09'510.4
2017-Nov-15 03:30N 53°41' E 008°05'612.9
2017-Nov-15 03:00N 53°47' E 008°01'612.5
2017-Nov-15 02:30N 53°51' E 007°52'3 6.8
2017-Nov-15 02:00N 53°53' E 007°47'611.2
2017-Nov-15 01:29N 53°56' E 007°39'611.8
2017-Nov-15 01:00N 54°01' E 007°34'4811.3
2017-Nov-14 20:47N 54°45' E 007°03'312.4
2017-Nov-14 20:30N 54°48' E 007°03'612.5
2017-Nov-14 20:00N 54°55' E 007°03'612.8
2017-Nov-14 19:30N 55°01' E 007°03'712.9
2017-Nov-14 19:00N 55°08' E 007°04'713.2
2017-Nov-14 18:30N 55°14' E 007°03'713.1
2017-Nov-14 18:00N 55°21' E 007°04'713.0
2017-Nov-14 17:30N 55°27' E 007°04'713.0
2017-Nov-14 16:59N 55°34' E 007°04'16811.3
2017-Nov-14 02:08N 57°48' E 010°06'213.0
2017-Nov-14 02:00N 57°48' E 010°09'713.3
2017-Nov-14 01:30N 57°49' E 010°22'713.3
2017-Nov-14 01:00N 57°49' E 010°34'713.0
2017-Nov-14 00:30N 57°49' E 010°46'713.3
2017-Nov-14 00:00N 57°46' E 010°57'713.6
2017-Nov-13 23:30N 57°43' E 011°09'714.0
2017-Nov-13 22:59N 57°39' E 011°21'714.2
2017-Nov-13 22:30N 57°36' E 011°32'5 9.7
2017-Nov-13 22:00N 57°38' E 011°41'25 1.3
2017-Nov-13 02:00N 57°12' E 011°37'4 8.5
2017-Nov-13 01:30N 57°08' E 011°40'4 8.7
2017-Nov-13 01:00N 57°04' E 011°42'4 7.9
2017-Nov-13 00:29N 57°00' E 011°45'5 8.4
2017-Nov-12 23:56N 56°56' E 011°47'66 7.3
2017-Nov-12 14:52N 56°06' E 010°29'3 9.5
2017-Nov-12 14:30N 56°07' E 010°23'5 9.3
2017-Nov-12 14:01N 56°09' E 010°16'1 2.2
2017-Nov-12 13:31N 56°09' E 010°14'0 0.0
2017-Nov-12 12:57N 56°09' E 010°14'0 0.0
2017-Nov-12 12:18N 56°09' E 010°14'0 0.0
2017-Nov-12 10:42N 56°09' E 010°14'0 0.0
2017-Nov-12 10:30N 56°09' E 010°14'0 0.0
2017-Nov-12 09:57N 56°09' E 010°14'0 0.0
2017-Nov-12 09:30N 56°09' E 010°14'0 0.0
2017-Nov-12 09:00N 56°09' E 010°14'0 0.0
2017-Nov-12 08:21N 56°09' E 010°14'0 0.0
2017-Nov-12 07:57N 56°09' E 010°14'0 0.0
2017-Nov-12 07:24N 56°09' E 010°14'0 0.0
2017-Nov-12 06:33N 56°09' E 010°14'0 0.0
2017-Nov-12 06:24N 56°09' E 010°14'69 2.5
2017-Nov-11 03:10N 56°58' E 011°43'3 9.1
2017-Nov-11 02:50N 57°01' E 011°41'3 9.5
2017-Nov-11 02:28N 57°04' E 011°39'510.2
2017-Nov-11 02:00N 57°08' E 011°36'510.9
2017-Nov-11 01:30N 57°13' E 011°32'3 6.1
2017-Nov-11 01:00N 57°11' E 011°37'4 8.4
2017-Nov-11 00:30N 57°08' E 011°40'4 8.1
2017-Nov-11 00:00N 57°04' E 011°42'5 8.2
2017-Nov-10 23:28N 56°60' E 011°45'1 2.7
2017-Nov-10 22:55N 56°59' E 011°42'4 8.4
2017-Nov-10 22:30N 57°03' E 011°40'5 9.1
2017-Nov-10 21:57N 57°07' E 011°37'4 9.1
2017-Nov-10 21:30N 57°11' E 011°35'4 8.8
2017-Nov-10 21:01N 57°15' E 011°32'4 8.4
2017-Nov-10 20:31N 57°19' E 011°29'4 8.1
2017-Nov-10 20:00N 57°23' E 011°27'4 7.1
2017-Nov-10 19:31N 57°26' E 011°24'3 6.9
2017-Nov-10 19:00N 57°29' E 011°21'4 7.8
2017-Nov-10 18:30N 57°32' E 011°16'4 7.9
2017-Nov-10 17:59N 57°35' E 011°10'4 7.8
2017-Nov-10 17:30N 57°37' E 011°05'4 7.8
2017-Nov-10 17:00N 57°40' E 010°60'4 8.0
2017-Nov-10 16:30N 57°43' E 010°54'4 7.8
2017-Nov-10 16:00N 57°45' E 010°49'510.3
2017-Nov-10 15:30N 57°49' E 010°41'713.2
2017-Nov-10 15:00N 57°49' E 010°29'713.8
2017-Nov-10 14:30N 57°49' E 010°16'714.1
2017-Nov-10 14:00N 57°48' E 010°03'16712.5
2017-Nov-10 00:40N 55°33' E 007°04'412.2
2017-Nov-10 00:21N 55°29' E 007°03'412.3
2017-Nov-10 00:00N 55°25' E 007°04'612.0
2017-Nov-09 23:30N 55°19' E 007°04'612.2
2017-Nov-09 23:00N 55°13' E 007°03'612.5
2017-Nov-09 22:30N 55°07' E 007°04'612.4
2017-Nov-09 22:00N 55°01' E 007°04'1012.3
2017-Nov-09 21:13N 54°51' E 007°04'312.1
2017-Nov-09 21:00N 54°48' E 007°04'6212.4
2017-Nov-09 16:03N 53°53' E 007°50'112.7
2017-Nov-09 15:57N 53°52' E 007°52'511.1
2017-Nov-09 15:30N 53°51' E 007°60'612.1
2017-Nov-09 15:00N 53°48' E 008°08'612.1
2017-Nov-09 14:31N 53°44' E 008°16'611.5
2017-Nov-09 13:59N 53°40' E 008°23'510.9
2017-Nov-09 13:30N 53°36' E 008°30'1 1.0
2017-Nov-09 13:00N 53°36' E 008°31'0 0.0
2017-Nov-09 12:30N 53°36' E 008°31'0 0.0
2017-Nov-09 12:00N 53°36' E 008°31'0 0.0
2017-Nov-09 11:30N 53°36' E 008°31'0 0.0
2017-Nov-09 10:59N 53°36' E 008°31'0 0.0
2017-Nov-09 10:29N 53°36' E 008°31'0 0.0
2017-Nov-09 09:59N 53°36' E 008°31'0 0.0
2017-Nov-09 09:29N 53°36' E 008°31'0 0.0
2017-Nov-09 08:59N 53°36' E 008°31'0 0.0
2017-Nov-09 08:29N 53°36' E 008°31'0 0.0
2017-Nov-09 07:59N 53°36' E 008°31'0 0.0
2017-Nov-09 07:29N 53°36' E 008°31'0 0.0
2017-Nov-09 06:59N 53°36' E 008°31'0 0.0
2017-Nov-09 06:29N 53°36' E 008°31'0 0.0
2017-Nov-09 05:59N 53°36' E 008°31'0 0.0
2017-Nov-09 05:26N 53°36' E 008°31'0 0.0
2017-Nov-09 04:59N 53°36' E 008°31'0 0.0
2017-Nov-09 04:29N 53°36' E 008°31'0 0.0
2017-Nov-09 03:59N 53°36' E 008°31'0 0.0
2017-Nov-09 03:29N 53°36' E 008°31'0 0.0
2017-Nov-09 02:59N 53°36' E 008°31'0 0.0
2017-Nov-09 02:29N 53°36' E 008°31'0 0.0
2017-Nov-09 01:59N 53°36' E 008°31'0 0.0
2017-Nov-09 01:29N 53°36' E 008°31'0 0.0
2017-Nov-09 00:59N 53°36' E 008°31'0 0.0
2017-Nov-09 00:29N 53°36' E 008°31'0 0.0
2017-Nov-08 23:59N 53°36' E 008°31'0 0.0
2017-Nov-08 23:29N 53°36' E 008°31'0 0.0
2017-Nov-08 22:59N 53°36' E 008°31'0 0.0
2017-Nov-08 22:29N 53°36' E 008°31'0 0.0
2017-Nov-08 22:00N 53°36' E 008°31'2 3.0
2017-Nov-08 21:30N 53°37' E 008°29'4 7.5
2017-Nov-08 21:00N 53°39' E 008°24'4 8.2
2017-Nov-08 20:30N 53°42' E 008°19'4 8.4
2017-Nov-08 20:01N 53°45' E 008°13'4 7.0
2017-Nov-08 19:30N 53°47' E 008°09'2 4.9
2017-Nov-08 19:01N 53°49' E 008°06'4 7.0
2017-Nov-08 18:30N 53°51' E 008°01'510.3
2017-Nov-08 18:00N 53°52' E 007°53'713.5
2017-Nov-08 17:30N 53°48' E 008°02'816.6
2017-Nov-08 17:00N 53°40' E 008°06'5 9.2
2017-Nov-08 16:31N 53°36' E 008°09'0 0.0
2017-Nov-08 15:59N 53°36' E 008°09'0 0.0
2017-Nov-08 15:29N 53°36' E 008°09'0 0.0
2017-Nov-08 14:56N 53°36' E 008°09'0 0.0
2017-Nov-08 14:29N 53°36' E 008°09'0 0.0
2017-Nov-08 13:53N 53°36' E 008°09'0 0.0
2017-Nov-08 13:29N 53°36' E 008°09'0 0.0
2017-Nov-08 12:59N 53°36' E 008°09'0 0.0
2017-Nov-08 12:29N 53°36' E 008°09'0 0.0
2017-Nov-08 11:59N 53°36' E 008°09'0 0.0
2017-Nov-08 11:29N 53°36' E 008°09'0 0.0
2017-Nov-08 10:59N 53°36' E 008°09'0 0.0
2017-Nov-08 10:29N 53°36' E 008°09'0 0.0
2017-Nov-08 09:56N 53°36' E 008°09'0 0.0
2017-Nov-08 09:26N 53°36' E 008°09'0 0.0
2017-Nov-08 08:59N 53°36' E 008°09'0 0.0
2017-Nov-08 08:30N 53°36' E 008°09'0 0.0
2017-Nov-08 08:00N 53°36' E 008°09'0 0.0
2017-Nov-08 07:31N 53°36' E 008°09'0 0.0
2017-Nov-08 07:00N 53°36' E 008°09'0 0.0
2017-Nov-08 06:31N 53°36' E 008°09'0 0.0
2017-Nov-08 06:00N 53°36' E 008°09'0 0.0
2017-Nov-08 05:31N 53°36' E 008°09'1 3.0
2017-Nov-08 05:01N 53°37' E 008°09'4 7.9
2017-Nov-08 04:31N 53°40' E 008°06'510.6
2017-Nov-08 04:00N 53°45' E 008°03'5 9.8
2017-Nov-08 03:30N 53°49' E 007°57'611.2
2017-Nov-08 02:58N 53°52' E 007°49'3 6.7
2017-Nov-08 02:30N 53°53' E 007°44'  

Dump ship's entire track history